createdAt,value
2023-03-28T00:01:13.387Z,1.10
2023-03-28T00:03:42.370Z,1.20
2023-03-28T00:06:13.690Z,0.97
2023-03-28T00:08:42.354Z,1.20
2023-03-28T00:11:18.649Z,1.13
2023-03-28T00:13:50.191Z,1.33
2023-03-28T00:16:18.391Z,1.37
2023-03-28T00:18:46.677Z,1.00
2023-03-28T00:21:25.609Z,1.37
2023-03-28T00:23:57.051Z,1.67
2023-03-28T00:26:26.819Z,1.43
2023-03-28T00:28:57.863Z,1.40
2023-03-28T00:31:27.338Z,1.00
2023-03-28T00:33:56.609Z,1.63
2023-03-28T00:36:29.274Z,1.33
2023-03-28T00:38:58.936Z,1.30
2023-03-28T00:41:31.283Z,1.70
2023-03-28T00:44:02.280Z,1.27
2023-03-28T00:46:37.145Z,1.50
2023-03-28T00:49:12.688Z,1.37
2023-03-28T00:51:47.045Z,1.83
2023-03-28T00:54:21.056Z,1.60
2023-03-28T00:56:55.642Z,1.70
2023-03-28T00:59:31.088Z,1.40
2023-03-28T01:02:00.007Z,1.10
2023-03-28T01:04:37.796Z,1.40
2023-03-28T01:07:07.745Z,1.33
2023-03-28T01:09:37.753Z,1.83
2023-03-28T01:12:07.145Z,1.53
2023-03-28T01:14:40.021Z,1.47
2023-03-28T01:17:08.781Z,1.20
2023-03-28T01:19:59.649Z,1.33
2023-03-28T01:23:16.386Z,1.10
2023-03-28T01:26:33.203Z,1.40
2023-03-28T01:30:00.879Z,1.37
2023-03-28T01:33:21.165Z,1.23
2023-03-28T01:36:51.703Z,1.50
2023-03-28T01:39:37.860Z,1.40
2023-03-28T01:42:20.480Z,1.70
2023-03-28T01:45:01.193Z,1.50
2023-03-28T01:47:38.431Z,1.60
2023-03-28T01:50:18.209Z,1.67
2023-03-28T01:52:57.966Z,1.70
2023-03-28T01:55:42.081Z,1.60
2023-03-28T01:58:22.026Z,2.10
2023-03-28T02:00:57.123Z,2.00
2023-03-28T02:03:32.922Z,1.53
2023-03-28T02:06:07.177Z,1.87
2023-03-28T02:08:40.262Z,2.20
2023-03-28T02:11:11.407Z,1.90
2023-03-28T02:13:46.850Z,2.00
2023-03-28T02:16:18.902Z,1.83
2023-03-28T02:18:56.042Z,1.90
2023-03-28T02:21:30.948Z,2.17
2023-03-28T02:23:59.232Z,2.07
2023-03-28T02:26:29.508Z,1.80
2023-03-28T02:29:00.629Z,2.20
2023-03-28T02:31:29.001Z,1.57
2023-03-28T02:33:58.779Z,2.20
2023-03-28T02:36:39.913Z,1.87
2023-03-28T02:39:46.536Z,2.20
2023-03-28T02:42:56.958Z,1.60
2023-03-28T02:46:08.434Z,1.90
2023-03-28T02:48:56.274Z,2.00
2023-03-28T02:51:34.926Z,1.90
2023-03-28T02:54:24.810Z,2.30
2023-03-28T02:57:04.043Z,2.13
2023-03-28T02:59:42.963Z,2.20
2023-03-28T03:02:17.895Z,2.57
2023-03-28T03:04:46.750Z,2.13
2023-03-28T03:07:17.937Z,2.20
2023-03-28T03:09:46.671Z,2.13
2023-03-28T03:12:15.268Z,2.30
2023-03-28T03:14:44.725Z,2.20
2023-03-28T03:17:12.879Z,2.30
2023-03-28T03:19:43.253Z,2.00
2023-03-28T03:22:12.341Z,2.20
2023-03-28T03:24:50.872Z,2.37
2023-03-28T03:27:20.165Z,2.17
2023-03-28T03:29:49.642Z,2.33
2023-03-28T03:32:17.746Z,2.17
2023-03-28T03:34:45.848Z,2.40
2023-03-28T03:37:14.275Z,2.50
2023-03-28T03:39:42.360Z,2.40
2023-03-28T03:42:10.808Z,1.83
2023-03-28T03:44:39.006Z,2.30
2023-03-28T03:47:08.478Z,1.93
2023-03-28T03:49:36.601Z,2.30
2023-03-28T03:52:05.080Z,2.20
2023-03-28T03:54:33.999Z,2.30
2023-03-28T03:57:03.322Z,2.23
2023-03-28T03:59:31.719Z,2.17
2023-03-28T04:02:00.315Z,2.33
2023-03-28T04:04:30.350Z,2.57
2023-03-28T04:06:59.143Z,2.37
2023-03-28T04:09:27.911Z,2.87
2023-03-28T04:11:56.617Z,2.50
2023-03-28T04:14:25.198Z,2.67
2023-03-28T04:16:53.791Z,2.40
2023-03-28T04:19:24.218Z,2.60
2023-03-28T04:21:57.427Z,2.63
2023-03-28T04:24:25.757Z,2.33
2023-03-28T04:26:56.074Z,2.37
2023-03-28T04:29:30.600Z,3.37
2023-03-28T04:31:59.060Z,2.60
2023-03-28T04:34:30.096Z,2.73
2023-03-28T04:37:02.220Z,2.90
2023-03-28T04:39:31.840Z,2.60
2023-03-28T04:42:02.167Z,2.87
2023-03-28T04:44:30.807Z,2.50
2023-03-28T04:46:59.463Z,2.77
2023-03-28T04:49:27.799Z,2.43
2023-03-28T04:51:55.971Z,2.80
2023-03-28T04:54:25.455Z,2.50
2023-03-28T04:56:53.689Z,2.87
2023-03-28T04:59:21.939Z,2.93
2023-03-28T05:01:50.248Z,2.50
2023-03-28T05:04:19.971Z,2.80
2023-03-28T05:06:50.095Z,3.20
2023-03-28T05:09:18.596Z,3.43
2023-03-28T05:11:48.055Z,3.77
2023-03-28T05:14:16.367Z,3.10
2023-03-28T05:16:44.553Z,2.70
2023-03-28T05:19:12.799Z,3.60
2023-03-28T05:21:41.721Z,3.50
2023-03-28T05:24:11.507Z,3.60
2023-03-28T05:26:39.632Z,4.07
2023-03-28T05:29:09.138Z,3.20
2023-03-28T05:31:37.331Z,3.40
2023-03-28T05:34:05.706Z,3.40
2023-03-28T05:36:33.837Z,3.70
2023-03-28T05:39:01.979Z,3.40
2023-03-28T05:41:30.296Z,3.33
2023-03-28T05:43:58.463Z,3.77
2023-03-28T05:46:27.950Z,3.57
2023-03-28T05:48:56.095Z,3.23
2023-03-28T05:51:24.227Z,3.80
2023-03-28T05:53:52.395Z,4.43
2023-03-28T05:56:20.997Z,3.67
2023-03-28T05:58:49.317Z,4.47
2023-03-28T06:01:18.086Z,4.07
2023-03-28T06:03:47.710Z,4.40
2023-03-28T06:06:17.985Z,3.50
2023-03-28T06:08:46.850Z,3.80
2023-03-28T06:11:15.683Z,3.87
2023-03-28T06:13:43.835Z,4.30
2023-03-28T06:16:12.057Z,4.40
2023-03-28T06:18:40.172Z,4.80
2023-03-28T06:21:09.800Z,4.07
2023-03-28T06:23:37.905Z,3.57
2023-03-28T06:26:06.539Z,4.20
2023-03-28T06:28:34.670Z,3.40
2023-03-28T06:31:03.253Z,3.60
2023-03-28T06:33:31.666Z,3.63
2023-03-28T06:35:59.836Z,3.80
2023-03-28T06:38:29.910Z,3.40
2023-03-28T06:40:58.300Z,3.23
2023-03-28T06:43:26.916Z,3.43
2023-03-28T06:45:55.223Z,3.67
2023-03-28T06:48:23.432Z,3.77
2023-03-28T06:50:51.600Z,3.53
2023-03-28T06:53:20.648Z,3.30
2023-03-28T06:55:51.392Z,3.03
2023-03-28T06:58:19.899Z,3.07
2023-03-28T07:00:48.446Z,3.37
2023-03-28T07:03:16.655Z,2.80
2023-03-28T07:05:45.294Z,2.60
2023-03-28T07:08:15.235Z,3.23
2023-03-28T07:10:44.354Z,3.13
2023-03-28T07:13:14.677Z,2.60
2023-03-28T07:15:43.278Z,2.90
2023-03-28T07:18:11.396Z,2.77
2023-03-28T07:20:40.526Z,3.00
2023-03-28T07:23:08.653Z,2.90
2023-03-28T07:25:36.790Z,2.33
2023-03-28T07:28:05.038Z,2.17
2023-03-28T07:30:34.483Z,2.70
2023-03-28T07:33:12.970Z,2.80
2023-03-28T07:35:43.059Z,2.50
2023-03-28T07:38:11.237Z,2.57
2023-03-28T07:40:39.420Z,2.50
2023-03-28T07:43:07.533Z,2.87
2023-03-28T07:45:37.208Z,2.47
2023-03-28T07:48:05.797Z,2.40
2023-03-28T07:50:34.784Z,2.40
2023-03-28T07:53:02.945Z,2.27
2023-03-28T07:55:32.648Z,2.13
2023-03-28T07:58:03.511Z,2.30
2023-03-28T08:00:32.105Z,2.27
2023-03-28T08:03:01.709Z,2.57
2023-03-28T08:05:30.009Z,2.00
2023-03-28T08:07:59.384Z,2.30
2023-03-28T08:10:27.696Z,2.27
2023-03-28T08:12:55.926Z,2.50
2023-03-28T08:15:24.044Z,2.00
2023-03-28T08:17:52.210Z,2.13
2023-03-28T08:20:21.827Z,2.10
2023-03-28T08:22:50.660Z,2.00
2023-03-28T08:25:19.569Z,1.93
2023-03-28T08:27:47.616Z,1.83
2023-03-28T08:30:15.892Z,1.50
2023-03-28T08:32:45.106Z,1.23
2023-03-28T08:35:15.600Z,1.40
2023-03-28T08:37:45.010Z,1.40
2023-03-28T08:40:18.747Z,1.60
2023-03-28T08:43:17.111Z,1.37
2023-03-28T08:45:53.162Z,1.53
2023-03-28T08:48:27.957Z,1.87
2023-03-28T08:51:05.886Z,2.03
2023-03-28T08:53:43.765Z,1.90
2023-03-28T08:56:16.501Z,2.07
2023-03-28T08:58:54.840Z,1.73
2023-03-28T09:01:23.560Z,2.10
2023-03-28T09:03:51.885Z,1.97
2023-03-28T09:06:30.815Z,2.10
2023-03-28T09:09:34.105Z,2.20
2023-03-28T09:12:27.334Z,2.00
2023-03-28T09:15:26.425Z,2.07
2023-03-28T09:18:31.612Z,2.10
2023-03-28T09:21:08.581Z,2.30
2023-03-28T09:24:06.185Z,2.13
2023-03-28T09:26:41.776Z,1.90
2023-03-28T09:29:18.836Z,2.10
2023-03-28T09:31:50.590Z,1.90
2023-03-28T09:34:27.313Z,2.30
2023-03-28T09:37:03.561Z,1.90
2023-03-28T09:39:38.260Z,1.93
2023-03-28T09:42:16.412Z,2.10
2023-03-28T09:44:58.836Z,2.30
2023-03-28T09:47:27.329Z,1.80
2023-03-28T09:50:05.683Z,2.37
2023-03-28T09:52:41.508Z,2.00
2023-03-28T09:55:19.937Z,2.00
2023-03-28T09:58:08.300Z,1.77
2023-03-28T10:00:41.013Z,1.90
2023-03-28T10:03:23.204Z,1.83
2023-03-28T10:05:52.685Z,1.77
2023-03-28T10:08:26.878Z,1.83
2023-03-28T10:11:02.705Z,1.80
2023-03-28T10:13:38.676Z,1.50
2023-03-28T10:16:08.834Z,2.03
2023-03-28T10:18:40.436Z,2.20
2023-03-28T10:21:15.748Z,1.90
2023-03-28T10:23:51.596Z,1.50
2023-03-28T10:26:27.441Z,1.70
2023-03-28T10:29:04.355Z,1.73
2023-03-28T10:31:34.484Z,1.67
2023-03-28T10:34:03.598Z,2.00
2023-03-28T10:36:37.425Z,1.87
2023-03-28T10:39:24.577Z,1.90
2023-03-28T10:41:58.001Z,1.70
2023-03-28T10:44:32.718Z,1.80
2023-03-28T10:47:03.956Z,2.00
2023-03-28T10:49:43.731Z,1.77
2023-03-28T10:52:26.278Z,1.80
2023-03-28T10:55:11.268Z,2.17
2023-03-28T10:57:53.826Z,2.40
2023-03-28T11:00:32.053Z,2.40
2023-03-28T11:03:27.057Z,2.37
2023-03-28T11:06:10.240Z,2.17
2023-03-28T11:08:54.073Z,2.40
2023-03-28T11:11:42.573Z,2.90
2023-03-28T11:14:28.471Z,2.10
2023-03-28T11:17:09.174Z,1.90
2023-03-28T11:20:17.363Z,2.20
2023-03-28T11:23:05.562Z,2.17
2023-03-28T11:25:51.637Z,2.23
2023-03-28T11:28:36.899Z,2.40
2023-03-28T11:31:06.492Z,1.80
2023-03-28T11:33:49.248Z,1.87
2023-03-28T11:36:29.471Z,2.00
2023-03-28T11:39:05.487Z,1.80
2023-03-28T11:41:38.036Z,2.00
2023-03-28T11:44:18.259Z,2.30
2023-03-28T11:46:54.526Z,2.30
2023-03-28T11:49:31.063Z,2.23
2023-03-28T11:52:07.108Z,2.07
2023-03-28T11:54:42.663Z,2.20
2023-03-28T11:57:22.921Z,2.10
2023-03-28T11:59:58.153Z,2.20
2023-03-28T12:02:43.305Z,2.50
2023-03-28T12:05:25.926Z,2.60
2023-03-28T12:08:04.268Z,1.90
2023-03-28T12:10:36.323Z,1.90
2023-03-28T12:13:12.196Z,1.83
2023-03-28T12:15:49.891Z,2.00
2023-03-28T12:18:30.542Z,1.90
2023-03-28T12:21:10.432Z,2.00
2023-03-28T12:23:48.363Z,1.90
2023-03-28T12:26:30.286Z,2.10
2023-03-28T12:29:08.499Z,1.90
2023-03-28T12:31:47.472Z,2.13
2023-03-28T12:34:30.316Z,2.00
2023-03-28T12:37:11.980Z,2.57
2023-03-28T12:39:52.342Z,2.20
2023-03-28T12:42:24.419Z,2.20
2023-03-28T12:45:00.881Z,2.30
2023-03-28T12:47:34.358Z,2.60
2023-03-28T12:50:07.022Z,2.30
2023-03-28T12:52:38.933Z,2.60
2023-03-28T12:55:31.381Z,2.83
2023-03-28T12:58:25.604Z,2.60
2023-03-28T13:01:23.098Z,2.20
2023-03-28T13:04:03.806Z,2.30
2023-03-28T13:06:43.666Z,2.33
2023-03-28T13:10:00.716Z,2.60
2023-03-28T13:12:47.955Z,2.73
2023-03-28T13:15:32.467Z,2.60
2023-03-28T13:18:31.514Z,2.80
2023-03-28T13:21:04.089Z,2.27
2023-03-28T13:23:37.317Z,2.40
2023-03-28T13:26:08.093Z,2.03
2023-03-28T13:28:46.082Z,2.30
2023-03-28T13:31:23.302Z,2.13
2023-03-28T13:33:58.398Z,2.10
2023-03-28T13:36:29.400Z,2.30
2023-03-28T13:39:21.349Z,1.97
2023-03-28T13:42:00.915Z,1.97
2023-03-28T13:44:51.898Z,1.80
2023-03-28T13:47:31.850Z,2.00
2023-03-28T13:50:09.418Z,1.97
2023-03-28T13:52:39.268Z,2.07
2023-03-28T13:55:21.936Z,1.90
2023-03-28T13:57:52.684Z,2.10
2023-03-28T14:00:25.809Z,2.00
2023-03-28T14:03:03.321Z,2.30
2023-03-28T14:05:35.347Z,1.70
2023-03-28T14:08:22.302Z,1.73
2023-03-28T14:10:52.203Z,2.20
2023-03-28T14:13:27.983Z,2.30
2023-03-28T14:15:56.948Z,2.17
2023-03-28T14:18:32.889Z,2.40
2023-03-28T14:21:01.980Z,2.10
2023-03-28T14:23:33.886Z,1.77
2023-03-28T14:26:05.772Z,2.30
2023-03-28T14:28:42.017Z,2.17
2023-03-28T14:31:15.007Z,2.13
2023-03-28T14:33:47.634Z,1.77
2023-03-28T14:36:17.274Z,1.70
2023-03-28T14:38:45.363Z,1.70
2023-03-28T14:41:21.379Z,1.50
2023-03-28T14:43:55.843Z,1.70
2023-03-28T14:46:28.706Z,2.03
2023-03-28T14:49:02.334Z,1.90
2023-03-28T14:51:40.924Z,2.00
2023-03-28T14:54:15.456Z,1.40
2023-03-28T14:56:45.845Z,1.70
2023-03-28T14:59:20.164Z,1.70
2023-03-28T15:01:51.790Z,1.87
2023-03-28T15:04:23.479Z,2.13
2023-03-28T15:06:56.419Z,1.70
2023-03-28T15:09:31.347Z,1.50
2023-03-28T15:12:06.617Z,1.60
2023-03-28T15:14:43.073Z,1.57
2023-03-28T15:17:20.244Z,1.87
2023-03-28T15:19:55.909Z,1.50
2023-03-28T15:22:29.860Z,1.50
2023-03-28T15:24:59.300Z,1.60
2023-03-28T15:27:34.122Z,1.87
2023-03-28T15:30:14.769Z,1.40
2023-03-28T15:32:42.961Z,1.30
2023-03-28T15:35:28.337Z,1.60
2023-03-28T15:38:06.375Z,1.50
2023-03-28T15:40:41.636Z,1.70
2023-03-28T15:43:30.335Z,1.90
2023-03-28T15:46:02.474Z,1.37
2023-03-28T15:48:34.991Z,1.60
2023-03-28T15:51:06.970Z,1.70
2023-03-28T15:53:38.480Z,1.70
2023-03-28T15:56:14.919Z,1.63
2023-03-28T15:58:46.656Z,1.70
2023-03-28T16:01:34.645Z,1.87
2023-03-28T16:04:32.857Z,1.43
2023-03-28T16:07:13.426Z,1.40
2023-03-28T16:09:43.113Z,1.50
2023-03-28T16:12:15.498Z,1.63
2023-03-28T16:14:48.754Z,1.73
2023-03-28T16:17:18.247Z,1.30
2023-03-28T16:19:48.693Z,1.63
2023-03-28T16:22:16.691Z,1.60
2023-03-28T16:24:45.209Z,1.90
2023-03-28T16:27:13.267Z,1.37
2023-03-28T16:29:41.627Z,1.80
2023-03-28T16:32:13.401Z,1.20
2023-03-28T16:34:44.480Z,1.43
2023-03-28T16:37:12.507Z,1.97
2023-03-28T16:39:41.338Z,1.50
2023-03-28T16:42:09.543Z,1.43
2023-03-28T16:44:37.713Z,1.57
2023-03-28T16:47:06.083Z,1.53
2023-03-28T16:49:34.121Z,1.65
2023-03-28T16:52:04.769Z,1.70
2023-03-28T16:54:32.780Z,1.93
2023-03-28T16:57:01.006Z,1.63
2023-03-28T16:59:29.163Z,1.50
2023-03-28T17:01:57.545Z,1.87
2023-03-28T17:04:27.936Z,1.60
2023-03-28T17:06:57.476Z,1.77
2023-03-28T17:09:27.327Z,1.87
2023-03-28T17:11:55.458Z,2.23
2023-03-28T17:14:23.602Z,1.80
2023-03-28T17:16:51.809Z,2.17
2023-03-28T17:19:23.055Z,8.17
2023-03-28T17:21:51.492Z,5.90
2023-03-28T17:24:21.593Z,3.83
2023-03-28T17:26:51.274Z,3.40
2023-03-28T17:29:19.333Z,2.90
2023-03-28T17:31:47.512Z,3.23
2023-03-28T17:34:16.049Z,2.70
2023-03-28T17:36:44.362Z,2.70
2023-03-28T17:39:12.938Z,2.93
2023-03-28T17:41:41.711Z,2.90
2023-03-28T17:44:11.546Z,2.53
2023-03-28T17:46:39.757Z,2.50
2023-03-28T17:49:08.081Z,2.43
2023-03-28T17:51:36.312Z,2.50
2023-03-28T17:54:06.764Z,2.00
2023-03-28T17:56:35.128Z,1.93
2023-03-28T17:59:03.959Z,2.43
2023-03-28T18:01:33.743Z,2.33
2023-03-28T18:04:02.269Z,2.47
2023-03-28T18:06:30.834Z,2.63
2023-03-28T18:08:59.040Z,3.07
2023-03-28T18:11:27.215Z,2.73
2023-03-28T18:13:58.820Z,2.83
2023-03-28T18:16:27.757Z,3.10
2023-03-28T18:18:57.432Z,3.27
2023-03-28T18:21:26.052Z,2.70
2023-03-28T18:23:54.428Z,3.00
2023-03-28T18:26:22.592Z,2.60
2023-03-28T18:28:50.758Z,3.27
2023-03-28T18:31:27.630Z,2.87
2023-03-28T18:33:58.005Z,3.20
2023-03-28T18:36:29.057Z,3.00
2023-03-28T18:38:57.577Z,3.07
2023-03-28T18:41:26.402Z,4.17
2023-03-28T18:43:54.523Z,4.13
2023-03-28T18:46:25.092Z,3.00
2023-03-28T18:48:54.648Z,3.77
2023-03-28T18:51:24.741Z,3.47
2023-03-28T18:53:53.878Z,3.90
2023-03-28T18:56:22.765Z,3.80
2023-03-28T18:58:51.266Z,3.47
2023-03-28T19:01:20.527Z,4.00
2023-03-28T19:03:49.856Z,3.90
2023-03-28T19:06:18.316Z,3.93
2023-03-28T19:08:48.510Z,3.90
2023-03-28T19:11:19.584Z,3.70
2023-03-28T19:13:47.895Z,3.63
2023-03-28T19:16:19.565Z,3.90
2023-03-28T19:18:48.561Z,3.33
2023-03-28T19:21:17.706Z,3.40
2023-03-28T19:23:48.828Z,3.50
2023-03-28T19:26:18.141Z,3.07
2023-03-28T19:28:47.264Z,2.83
2023-03-28T19:31:15.654Z,4.10
2023-03-28T19:33:44.738Z,3.30
2023-03-28T19:36:12.997Z,3.43
2023-03-28T19:38:41.610Z,3.63
2023-03-28T19:41:19.064Z,4.03
2023-03-28T19:43:48.688Z,3.13
2023-03-28T19:46:24.883Z,3.67
2023-03-28T19:48:56.504Z,3.73
2023-03-28T19:51:24.817Z,3.90
2023-03-28T19:53:53.434Z,3.50
2023-03-28T19:56:23.407Z,3.90
2023-03-28T19:58:52.081Z,3.90
2023-03-28T20:01:20.898Z,4.27
2023-03-28T20:03:52.868Z,4.13
2023-03-28T20:06:23.602Z,3.97
2023-03-28T20:08:52.203Z,4.23
2023-03-28T20:11:22.014Z,3.63
2023-03-28T20:13:50.277Z,4.10
2023-03-28T20:16:18.446Z,3.73
2023-03-28T20:18:46.618Z,3.70
2023-03-28T20:21:15.385Z,4.33
2023-03-28T20:23:43.504Z,3.10
2023-03-28T20:26:18.242Z,4.00
2023-03-28T20:28:50.564Z,3.60
2023-03-28T20:31:19.928Z,3.20
2023-03-28T20:33:48.018Z,3.20
2023-03-28T20:36:16.357Z,3.00
2023-03-28T20:38:44.440Z,2.90
2023-03-28T20:41:13.382Z,3.10
2023-03-28T20:43:47.000Z,3.40
2023-03-28T20:46:19.610Z,3.47
2023-03-28T20:48:52.879Z,4.17
2023-03-28T20:51:23.644Z,3.37
2023-03-28T20:53:56.947Z,3.37
2023-03-28T20:56:27.266Z,3.47
2023-03-28T20:58:58.148Z,3.40
2023-03-28T21:01:32.901Z,3.30
2023-03-28T21:04:02.196Z,3.50
2023-03-28T21:06:35.182Z,4.03
2023-03-28T21:09:07.879Z,3.70
2023-03-28T21:11:38.708Z,2.97
2023-03-28T21:14:09.150Z,3.17
2023-03-28T21:16:38.677Z,3.10
2023-03-28T21:19:07.719Z,3.17
2023-03-28T21:21:36.057Z,2.90
2023-03-28T21:24:07.188Z,2.87
2023-03-28T21:26:35.773Z,2.80
2023-03-28T21:29:04.632Z,3.00
2023-03-28T21:31:33.125Z,3.10
2023-03-28T21:34:02.722Z,3.10
2023-03-28T21:36:30.912Z,3.10
2023-03-28T21:38:59.041Z,3.27
2023-03-28T21:41:28.267Z,2.80
2023-03-28T21:43:56.846Z,2.97
2023-03-28T21:46:25.492Z,2.97
2023-03-28T21:48:53.955Z,2.90
2023-03-28T21:51:23.501Z,2.70
2023-03-28T21:53:52.179Z,2.43
2023-03-28T21:56:20.324Z,2.87
2023-03-28T21:58:48.512Z,2.83
2023-03-28T22:01:18.480Z,2.70
2023-03-28T22:03:47.581Z,3.10
2023-03-28T22:06:18.283Z,2.60
2023-03-28T22:08:51.897Z,2.50
2023-03-28T22:11:27.340Z,3.17
2023-03-28T22:14:02.779Z,3.30
2023-03-28T22:16:33.544Z,2.80
2023-03-28T22:19:02.834Z,2.83
2023-03-28T22:21:31.438Z,2.73
2023-03-28T22:24:03.445Z,2.60
2023-03-28T22:26:32.042Z,2.93
2023-03-28T22:29:00.890Z,3.10
2023-03-28T22:31:29.588Z,2.93
2023-03-28T22:33:57.847Z,3.37
2023-03-28T22:36:26.216Z,2.83
2023-03-28T22:38:55.343Z,3.37
2023-03-28T22:41:24.928Z,2.70
2023-03-28T22:43:53.065Z,3.20
2023-03-28T22:46:22.080Z,3.27
2023-03-28T22:48:54.237Z,2.90
2023-03-28T22:51:25.200Z,2.70
2023-03-28T22:53:53.938Z,3.03
2023-03-28T22:56:23.321Z,3.00
2023-03-28T22:58:53.897Z,3.07
2023-03-28T23:01:25.903Z,3.00
2023-03-28T23:03:54.261Z,2.80
2023-03-28T23:06:22.459Z,3.43
2023-03-28T23:08:50.573Z,2.90
2023-03-28T23:11:18.691Z,2.93
2023-03-28T23:13:46.947Z,3.30
2023-03-28T23:16:16.507Z,2.80
2023-03-28T23:18:45.050Z,3.20
2023-03-28T23:21:13.453Z,3.70
2023-03-28T23:23:42.299Z,3.03
2023-03-28T23:26:10.671Z,3.20
2023-03-28T23:28:38.819Z,3.63
2023-03-28T23:31:07.759Z,3.00
2023-03-28T23:33:37.508Z,3.13
2023-03-28T23:36:07.649Z,3.60
2023-03-28T23:38:35.864Z,3.40
2023-03-28T23:41:04.207Z,3.73
2023-03-28T23:43:32.610Z,3.47
2023-03-28T23:46:04.038Z,3.10
2023-03-28T23:48:32.769Z,3.20
2023-03-28T23:51:02.447Z,3.17
2023-03-28T23:53:30.696Z,3.60
2023-03-28T23:55:58.838Z,3.03
2023-03-28T23:58:26.984Z,3.40
